createdAt,value
2022-08-26T00:04:35.101Z,20.42
2022-08-26T00:09:40.158Z,20.35
2022-08-26T00:14:42.184Z,20.31
2022-08-26T00:19:43.825Z,20.26
2022-08-26T00:24:48.093Z,20.18
2022-08-26T00:29:52.571Z,20.16
2022-08-26T00:34:55.012Z,20.10
2022-08-26T00:39:56.764Z,20.01
2022-08-26T00:45:02.603Z,20.00
2022-08-26T00:50:16.120Z,19.99
2022-08-26T00:55:37.856Z,19.94
2022-08-26T01:00:39.954Z,19.89
2022-08-26T01:05:43.000Z,19.83
2022-08-26T01:10:45.791Z,19.77
2022-08-26T01:15:54.054Z,19.74
2022-08-26T01:21:33.740Z,19.55
2022-08-26T01:26:43.097Z,19.27
2022-08-26T01:31:52.923Z,18.99
2022-08-26T01:37:07.004Z,19.14
2022-08-26T01:42:14.707Z,19.16
2022-08-26T01:47:17.941Z,19.18
2022-08-26T01:52:28.053Z,19.09
2022-08-26T01:57:31.075Z,19.02
2022-08-26T02:02:32.722Z,18.97
2022-08-26T02:07:34.749Z,19.02
2022-08-26T02:12:37.246Z,18.95
2022-08-26T02:17:44.719Z,18.90
2022-08-26T02:22:47.601Z,18.86
2022-08-26T02:27:49.320Z,18.82
2022-08-26T02:32:51.901Z,18.78
2022-08-26T02:37:53.578Z,18.70
2022-08-26T02:42:56.019Z,18.71
2022-08-26T02:47:59.697Z,18.64
2022-08-26T02:53:01.943Z,18.56
2022-08-26T02:58:04.476Z,18.56
2022-08-26T03:03:06.570Z,18.45
2022-08-26T03:08:11.769Z,18.32
2022-08-26T03:13:13.910Z,18.31
2022-08-26T03:18:16.107Z,18.26
2022-08-26T03:23:18.595Z,18.30
2022-08-26T03:28:20.294Z,18.38
2022-08-26T03:33:22.393Z,18.43
2022-08-26T03:38:27.110Z,18.46
2022-08-26T03:43:28.756Z,18.48
2022-08-26T03:48:30.386Z,18.29
2022-08-26T03:53:31.985Z,18.33
2022-08-26T03:58:38.033Z,18.47
2022-08-26T04:04:00.018Z,18.25
2022-08-26T04:09:06.518Z,18.25
2022-08-26T04:14:13.473Z,18.29
2022-08-26T04:19:16.735Z,18.27
2022-08-26T04:24:20.640Z,18.13
2022-08-26T04:29:25.421Z,18.12
2022-08-26T04:34:28.974Z,18.23
2022-08-26T04:39:31.154Z,18.22
2022-08-26T04:44:35.866Z,18.29
2022-08-26T04:49:38.311Z,18.54
2022-08-26T04:54:42.008Z,18.47
2022-08-26T04:59:43.772Z,18.51
2022-08-26T05:04:45.504Z,18.54
2022-08-26T05:09:47.105Z,18.75
2022-08-26T05:14:48.805Z,18.98
2022-08-26T05:19:50.755Z,19.08
2022-08-26T05:24:52.371Z,19.27
2022-08-26T05:29:57.424Z,19.53
2022-08-26T05:34:59.579Z,19.80
2022-08-26T05:40:04.861Z,20.04
2022-08-26T05:45:07.337Z,20.10
2022-08-26T05:50:09.380Z,20.29
2022-08-26T05:55:11.031Z,20.54
2022-08-26T06:00:15.457Z,20.77
2022-08-26T06:05:17.693Z,20.90
2022-08-26T06:10:32.243Z,21.21
2022-08-26T06:15:35.624Z,21.54
2022-08-26T06:20:37.759Z,21.71
2022-08-26T06:25:39.543Z,22.19
2022-08-26T06:30:41.746Z,22.59
2022-08-26T06:35:43.755Z,22.93
2022-08-26T06:40:50.998Z,23.28
2022-08-26T06:46:01.940Z,23.31
2022-08-26T06:51:13.224Z,23.36
2022-08-26T06:56:17.995Z,23.55
2022-08-26T07:01:24.430Z,23.70
2022-08-26T07:06:28.298Z,23.85
2022-08-26T07:11:30.795Z,23.79
2022-08-26T07:16:33.231Z,23.77
2022-08-26T07:21:34.864Z,24.07
2022-08-26T07:26:36.474Z,24.26
2022-08-26T07:31:42.419Z,24.82
2022-08-26T07:36:44.941Z,25.12
2022-08-26T07:41:47.928Z,25.68
2022-08-26T07:46:53.074Z,26.40
2022-08-26T07:51:55.379Z,26.74
2022-08-26T07:57:00.008Z,27.25
2022-08-26T08:02:01.965Z,27.74
2022-08-26T08:07:03.676Z,28.16
2022-08-26T08:12:14.274Z,28.46
2022-08-26T08:17:16.474Z,28.33
2022-08-26T08:22:19.687Z,28.11
2022-08-26T08:27:23.833Z,28.60
2022-08-26T08:32:25.880Z,28.79
2022-08-26T08:37:27.481Z,29.02
2022-08-26T08:42:32.692Z,29.12
2022-08-26T08:47:42.964Z,29.40
2022-08-26T08:52:50.947Z,29.99
2022-08-26T08:58:16.460Z,29.94
2022-08-26T09:03:30.827Z,29.92
2022-08-26T09:08:36.946Z,29.74
2022-08-26T09:13:39.855Z,29.86
2022-08-26T09:18:45.981Z,29.49
2022-08-26T09:23:49.628Z,29.27
2022-08-26T09:29:00.770Z,29.23
2022-08-26T09:34:23.179Z,29.42
2022-08-26T09:39:27.405Z,29.63
2022-08-26T09:44:29.971Z,29.77
2022-08-26T09:49:39.901Z,29.91
2022-08-26T09:54:46.028Z,29.99
2022-08-26T09:59:49.768Z,29.60
2022-08-26T10:04:56.641Z,29.76
2022-08-26T10:09:58.331Z,29.55
2022-08-26T10:15:08.286Z,29.68
2022-08-26T10:20:28.867Z,29.52
2022-08-26T10:25:43.263Z,29.44
2022-08-26T10:30:50.974Z,29.57
2022-08-26T10:35:59.777Z,29.82
2022-08-26T10:41:10.786Z,29.87
2022-08-26T10:46:19.752Z,29.72
2022-08-26T10:51:29.723Z,29.80
2022-08-26T10:57:03.706Z,29.19
2022-08-26T11:02:15.501Z,29.20
2022-08-26T11:07:37.683Z,29.05
2022-08-26T11:12:39.985Z,29.03
2022-08-26T11:17:44.728Z,29.07
2022-08-26T11:22:47.883Z,28.97
2022-08-26T11:27:52.410Z,28.90
2022-08-26T11:32:57.880Z,28.92
2022-08-26T11:38:22.017Z,29.20
2022-08-26T11:43:30.235Z,29.05
2022-08-26T11:48:34.955Z,29.12
2022-08-26T11:53:43.132Z,29.25
2022-08-26T11:58:46.913Z,29.38
2022-08-26T12:03:51.275Z,29.35
2022-08-26T12:08:55.742Z,29.25
2022-08-26T12:14:04.947Z,29.40
2022-08-26T12:19:27.606Z,29.37
2022-08-26T12:24:29.939Z,29.47
2022-08-26T12:29:31.668Z,29.40
2022-08-26T12:34:33.388Z,29.11
2022-08-26T12:39:37.519Z,29.06
2022-08-26T12:44:53.826Z,29.12
2022-08-26T12:50:25.465Z,29.06
2022-08-26T12:55:52.852Z,29.02
2022-08-26T13:01:14.739Z,29.18
2022-08-26T13:06:22.429Z,29.12
2022-08-26T13:11:31.613Z,29.21
2022-08-26T13:16:33.968Z,29.42
2022-08-26T13:21:49.867Z,29.36
2022-08-26T13:26:51.878Z,29.12
2022-08-26T13:31:53.703Z,28.77
2022-08-26T13:36:56.493Z,28.53
2022-08-26T13:41:58.267Z,28.47
2022-08-26T13:46:59.868Z,28.43
2022-08-26T13:52:03.742Z,28.43
2022-08-26T13:57:06.109Z,28.46
2022-08-26T14:02:07.726Z,28.71
2022-08-26T14:07:11.624Z,28.68
2022-08-26T14:12:13.242Z,28.57
2022-08-26T14:17:21.854Z,28.52
2022-08-26T14:22:23.581Z,28.07
2022-08-26T14:27:25.498Z,27.89
2022-08-26T14:32:28.841Z,27.84
2022-08-26T14:37:30.463Z,27.74
2022-08-26T14:42:32.449Z,27.69
2022-08-26T14:47:34.046Z,27.77
2022-08-26T14:52:55.663Z,27.71
2022-08-26T14:57:57.302Z,27.54
2022-08-26T15:02:59.170Z,27.50
2022-08-26T15:08:02.320Z,27.58
2022-08-26T15:13:04.275Z,27.66
2022-08-26T15:18:06.164Z,27.37
2022-08-26T15:23:08.178Z,27.27
2022-08-26T15:28:10.294Z,27.12
2022-08-26T15:33:15.340Z,26.92
2022-08-26T15:38:18.086Z,26.81
2022-08-26T15:43:28.774Z,26.88
2022-08-26T15:48:31.058Z,26.65
2022-08-26T15:53:34.844Z,26.59
2022-08-26T15:58:36.737Z,26.55
2022-08-26T16:03:38.615Z,26.45
2022-08-26T16:08:40.450Z,26.28
2022-08-26T16:13:42.084Z,26.14
2022-08-26T16:18:44.169Z,25.89
2022-08-26T16:23:46.676Z,25.85
2022-08-26T16:28:48.412Z,25.77
2022-08-26T16:33:50.071Z,25.68
2022-08-26T16:38:55.270Z,25.70
2022-08-26T16:43:57.330Z,25.51
2022-08-26T16:48:59.790Z,25.48
2022-08-26T16:54:02.753Z,25.49
2022-08-26T16:59:06.223Z,25.49
2022-08-26T17:04:07.907Z,25.29
2022-08-26T17:09:09.597Z,25.16
2022-08-26T17:14:11.616Z,25.15
2022-08-26T17:19:15.891Z,25.12
2022-08-26T17:24:17.577Z,25.01
2022-08-26T17:29:20.194Z,24.94
2022-08-26T17:34:23.167Z,25.00
2022-08-26T17:39:24.905Z,24.86
2022-08-26T17:44:26.702Z,24.67
2022-08-26T17:49:28.752Z,24.66
2022-08-26T17:54:30.360Z,24.66
2022-08-26T17:59:35.533Z,24.41
2022-08-26T18:04:37.150Z,24.32
2022-08-26T18:09:38.945Z,24.26
2022-08-26T18:14:40.580Z,24.13
2022-08-26T18:24:55.408Z,24.08
2022-08-26T18:30:01.554Z,23.99
2022-08-26T18:35:03.722Z,24.01
2022-08-26T18:40:07.679Z,23.82
2022-08-26T18:45:10.127Z,23.76
2022-08-26T18:50:18.401Z,23.57
2022-08-26T18:55:20.093Z,23.43
2022-08-26T19:00:21.744Z,23.36
2022-08-26T19:05:23.410Z,23.38
2022-08-26T19:10:26.396Z,23.29
2022-08-26T19:15:28.017Z,23.23
2022-08-26T19:20:29.652Z,23.16
2022-08-26T19:25:31.371Z,23.16
2022-08-26T19:30:33.009Z,23.18
2022-08-26T19:35:35.681Z,23.13
2022-08-26T19:40:38.576Z,23.14
2022-08-26T19:45:40.391Z,23.08
2022-08-26T19:50:42.339Z,23.12
2022-08-26T19:55:43.965Z,23.12
2022-08-26T20:00:45.759Z,23.09
2022-08-26T20:05:47.492Z,23.05
2022-08-26T20:10:50.238Z,23.07
2022-08-26T20:15:51.882Z,22.90
2022-08-26T20:21:12.271Z,22.71
2022-08-26T20:26:14.090Z,22.72
2022-08-26T20:31:16.674Z,22.61
2022-08-26T20:36:20.533Z,22.60
2022-08-26T20:41:25.417Z,22.59
2022-08-26T20:46:27.236Z,22.57
2022-08-26T20:51:29.157Z,22.56
2022-08-26T20:56:30.848Z,22.50
2022-08-26T21:01:35.020Z,22.44
2022-08-26T21:06:38.324Z,22.47
2022-08-26T21:11:41.263Z,22.37
2022-08-26T21:16:43.470Z,22.31
2022-08-26T21:21:47.836Z,22.34
2022-08-26T21:26:49.887Z,22.26
2022-08-26T21:31:51.683Z,22.00
2022-08-26T21:36:54.272Z,21.98
2022-08-26T21:41:55.971Z,22.04
2022-08-26T21:46:57.584Z,22.01
2022-08-26T21:52:00.436Z,21.83
2022-08-26T21:57:02.597Z,21.65
2022-08-26T22:02:07.800Z,21.75
2022-08-26T22:07:09.815Z,21.79
2022-08-26T22:12:12.210Z,21.74
2022-08-26T22:17:13.897Z,21.75
2022-08-26T22:22:15.675Z,21.72
2022-08-26T22:27:17.606Z,21.69
2022-08-26T22:32:19.210Z,21.63
2022-08-26T22:37:20.865Z,21.67
2022-08-26T22:42:22.464Z,21.75
2022-08-26T22:47:24.142Z,21.79
2022-08-26T22:52:25.838Z,21.79
2022-08-26T22:57:27.862Z,21.83
2022-08-26T23:02:29.470Z,21.72
2022-08-26T23:07:31.077Z,21.74
2022-08-26T23:12:33.529Z,21.75
2022-08-26T23:17:36.188Z,21.65
2022-08-26T23:22:37.968Z,21.74
2022-08-26T23:27:42.063Z,21.84
2022-08-26T23:32:43.674Z,21.93
2022-08-26T23:37:48.132Z,21.96
2022-08-26T23:42:51.962Z,21.87
2022-08-26T23:47:54.173Z,21.87
2022-08-26T23:53:08.800Z,21.89
2022-08-26T23:58:11.690Z,21.83
